createdAt,value
2017-07-12T00:01:26.301Z,64.70
2017-07-12T00:03:53.760Z,64.70
2017-07-12T00:06:21.220Z,64.70
2017-07-12T00:08:48.671Z,64.80
2017-07-12T00:11:16.122Z,65.00
2017-07-12T00:13:43.583Z,65.00
2017-07-12T00:16:11.051Z,65.20
2017-07-12T00:18:38.506Z,65.10
2017-07-12T00:21:05.975Z,65.20
2017-07-12T00:23:33.435Z,65.30
2017-07-12T00:26:00.894Z,65.40
2017-07-12T00:28:28.362Z,65.40
2017-07-12T00:30:55.831Z,65.50
2017-07-12T00:33:23.283Z,65.50
2017-07-12T00:35:50.732Z,65.40
2017-07-12T00:38:18.192Z,65.60
2017-07-12T00:40:45.642Z,65.80
2017-07-12T00:43:13.103Z,65.80
2017-07-12T00:45:40.555Z,65.80
2017-07-12T00:48:08.018Z,66.00
2017-07-12T00:50:35.476Z,66.00
2017-07-12T00:53:02.933Z,66.00
2017-07-12T00:55:30.398Z,66.00
2017-07-12T00:57:57.855Z,66.00
2017-07-12T01:00:25.323Z,66.10
2017-07-12T01:02:52.785Z,66.10
2017-07-12T01:05:20.234Z,66.20
2017-07-12T01:07:47.698Z,66.10
2017-07-12T01:10:15.167Z,66.10
2017-07-12T01:12:42.631Z,66.20
2017-07-12T01:15:10.091Z,66.20
2017-07-12T01:17:37.549Z,66.10
2017-07-12T01:20:05.010Z,66.40
2017-07-12T01:22:32.462Z,66.30
2017-07-12T01:25:00.373Z,66.40
2017-07-12T01:27:27.842Z,66.40
2017-07-12T01:29:55.306Z,66.20
2017-07-12T01:32:22.775Z,66.30
2017-07-12T01:34:50.233Z,66.20
2017-07-12T01:37:17.722Z,66.10
2017-07-12T01:39:45.178Z,66.00
2017-07-12T01:42:12.638Z,65.80
2017-07-12T01:44:40.094Z,65.80
2017-07-12T01:47:07.550Z,65.60
2017-07-12T01:49:35.010Z,65.50
2017-07-12T01:52:02.478Z,65.50
2017-07-12T01:54:30.703Z,64.80
2017-07-12T01:56:58.166Z,64.80
2017-07-12T01:59:25.609Z,64.40
2017-07-12T02:01:53.074Z,65.00
2017-07-12T02:04:20.524Z,65.00
2017-07-12T02:06:47.974Z,64.90
2017-07-12T02:09:15.493Z,65.00
2017-07-12T02:11:42.892Z,65.20
2017-07-12T02:14:10.346Z,65.30
2017-07-12T02:16:37.819Z,65.40
2017-07-12T02:19:05.286Z,65.60
2017-07-12T02:21:32.758Z,65.70
2017-07-12T02:24:00.217Z,65.80
2017-07-12T02:26:27.687Z,65.80
2017-07-12T02:28:55.902Z,66.30
2017-07-12T02:31:23.351Z,65.70
2017-07-12T02:33:50.814Z,65.80
2017-07-12T02:36:18.266Z,65.80
2017-07-12T02:38:45.725Z,66.30
2017-07-12T02:41:13.177Z,66.40
2017-07-12T02:43:40.643Z,67.00
2017-07-12T02:46:08.106Z,67.10
2017-07-12T02:48:35.584Z,67.00
2017-07-12T02:51:03.042Z,67.70
2017-07-12T02:53:30.499Z,68.00
2017-07-12T02:55:57.946Z,68.10
2017-07-12T02:58:25.527Z,68.10
2017-07-12T03:00:52.979Z,68.20
2017-07-12T03:03:20.449Z,68.60
2017-07-12T03:05:47.910Z,68.90
2017-07-12T03:08:15.374Z,69.50
2017-07-12T03:10:42.842Z,69.30
2017-07-12T03:13:10.295Z,70.60
2017-07-12T03:15:37.762Z,70.00
2017-07-12T03:18:05.222Z,69.80
2017-07-12T03:20:32.688Z,69.60
2017-07-12T03:23:00.142Z,70.00
2017-07-12T03:25:27.613Z,69.90
2017-07-12T03:27:55.071Z,69.70
2017-07-12T03:30:22.516Z,69.70
2017-07-12T03:32:49.960Z,69.40
2017-07-12T03:35:17.414Z,69.50
2017-07-12T03:37:44.857Z,69.60
2017-07-12T03:40:12.320Z,70.40
2017-07-12T03:42:39.782Z,69.70
2017-07-12T03:45:07.229Z,69.90
2017-07-12T03:47:34.691Z,70.80
2017-07-12T03:50:02.146Z,71.70
2017-07-12T03:52:29.601Z,72.30
2017-07-12T03:54:57.062Z,72.40
2017-07-12T03:57:24.524Z,72.70
2017-07-12T03:59:51.979Z,72.50
2017-07-12T04:02:19.427Z,72.70
2017-07-12T04:04:46.893Z,73.30
2017-07-12T04:07:14.351Z,73.70
2017-07-12T04:09:41.809Z,73.50
2017-07-12T04:12:09.280Z,72.90
2017-07-12T04:14:36.723Z,72.60
2017-07-12T04:17:04.211Z,73.30
2017-07-12T04:19:31.669Z,74.20
2017-07-12T04:21:59.126Z,74.00
2017-07-12T04:24:27.777Z,74.50
2017-07-12T04:26:55.246Z,75.10
2017-07-12T04:29:22.702Z,74.90
2017-07-12T04:31:50.586Z,75.00
2017-07-12T04:34:18.046Z,74.60
2017-07-12T04:36:45.504Z,74.40
2017-07-12T04:39:12.948Z,75.10
2017-07-12T04:41:40.419Z,74.60
2017-07-12T04:44:07.870Z,75.20
2017-07-12T04:46:35.626Z,74.50
2017-07-12T04:49:03.072Z,75.00
2017-07-12T04:51:30.550Z,75.00
2017-07-12T04:53:58.010Z,74.80
2017-07-12T04:56:25.466Z,75.30
2017-07-12T04:58:52.906Z,75.20
2017-07-12T05:01:20.873Z,75.30
2017-07-12T05:03:48.386Z,75.70
2017-07-12T05:06:15.858Z,76.20
2017-07-12T05:08:43.314Z,75.70
2017-07-12T05:11:11.383Z,75.40
2017-07-12T05:13:39.696Z,75.10
2017-07-12T05:16:07.157Z,75.10
2017-07-12T05:18:35.147Z,75.50
2017-07-12T05:21:02.621Z,75.50
2017-07-12T05:23:30.087Z,75.60
2017-07-12T05:25:57.547Z,75.60
2017-07-12T05:28:25.010Z,76.00
2017-07-12T05:30:52.471Z,75.10
2017-07-12T05:33:20.202Z,75.00
2017-07-12T05:35:48.570Z,74.90
2017-07-12T05:38:16.017Z,74.90
2017-07-12T05:40:43.462Z,75.10
2017-07-12T05:43:14.542Z,75.60
2017-07-12T05:45:41.994Z,75.90
2017-07-12T05:48:09.456Z,76.40
2017-07-12T05:50:36.922Z,77.10
2017-07-12T05:53:04.394Z,77.00
2017-07-12T05:55:31.857Z,76.80
2017-07-12T05:57:59.785Z,77.20
2017-07-12T06:00:27.554Z,77.60
2017-07-12T06:02:55.023Z,77.50
2017-07-12T06:05:22.467Z,77.70
2017-07-12T06:07:49.942Z,77.30
2017-07-12T06:10:17.398Z,77.10
2017-07-12T06:12:49.211Z,77.20
2017-07-12T06:15:16.671Z,76.90
2017-07-12T06:17:44.124Z,76.60
2017-07-12T06:20:11.610Z,76.30
2017-07-12T06:22:39.054Z,76.40
2017-07-12T06:25:06.506Z,76.70
2017-07-12T06:29:53.578Z,77.00
2017-07-12T06:32:21.042Z,76.90
2017-07-12T06:34:50.415Z,77.10
2017-07-12T06:37:17.874Z,77.80
2017-07-12T06:39:45.334Z,77.70
2017-07-12T06:42:13.631Z,77.70
2017-07-12T06:44:41.106Z,77.80
2017-07-12T06:47:08.819Z,77.90
2017-07-12T06:49:37.271Z,77.80
2017-07-12T06:52:04.738Z,77.90
2017-07-12T06:54:32.190Z,77.70
2017-07-12T06:56:59.667Z,77.50
2017-07-12T06:59:27.123Z,77.50
2017-07-12T07:01:54.578Z,77.60
2017-07-12T07:04:22.041Z,77.60
2017-07-12T07:06:49.515Z,77.60
2017-07-12T07:09:17.713Z,77.80
2017-07-12T07:11:46.611Z,77.90
2017-07-12T07:14:14.368Z,78.10
2017-07-12T07:16:41.833Z,78.30
2017-07-12T07:19:09.286Z,78.20
2017-07-12T07:21:36.796Z,78.30
2017-07-12T07:24:04.254Z,78.00
2017-07-12T07:26:31.854Z,78.00
2017-07-12T07:28:59.388Z,78.20
2017-07-12T07:31:27.394Z,78.00
2017-07-12T07:33:54.842Z,78.10
2017-07-12T07:36:22.306Z,78.50
2017-07-12T07:38:49.766Z,78.50
2017-07-12T07:41:17.518Z,78.60
2017-07-12T07:43:44.974Z,78.80
2017-07-12T07:46:13.494Z,78.80
2017-07-12T07:48:40.952Z,79.10
2017-07-12T07:51:09.274Z,79.00
2017-07-12T07:53:36.758Z,78.90
2017-07-12T07:56:04.743Z,78.90
2017-07-12T07:58:32.198Z,78.80
2017-07-12T08:00:59.663Z,78.60
2017-07-12T08:03:27.111Z,78.40
2017-07-12T08:05:54.588Z,78.20
2017-07-12T08:08:22.862Z,78.20
2017-07-12T08:10:50.398Z,78.20
2017-07-12T08:13:17.848Z,78.10
2017-07-12T08:15:45.686Z,77.90
2017-07-12T08:18:13.482Z,77.90
2017-07-12T08:20:40.936Z,77.70
2017-07-12T08:23:09.056Z,77.50
2017-07-12T08:25:36.518Z,77.40
2017-07-12T08:28:03.972Z,77.60
2017-07-12T08:30:31.727Z,78.20
2017-07-12T08:32:59.174Z,77.60
2017-07-12T08:35:26.625Z,77.60
2017-07-12T08:37:54.086Z,77.50
2017-07-12T08:40:21.541Z,77.60
2017-07-12T08:42:49.430Z,77.90
2017-07-12T08:45:17.623Z,78.10
2017-07-12T08:47:45.067Z,78.00
2017-07-12T08:50:12.531Z,78.10
2017-07-12T08:52:39.982Z,78.00
2017-07-12T08:55:07.451Z,78.20
2017-07-12T08:57:34.910Z,78.30
2017-07-12T09:00:02.385Z,78.30
2017-07-12T09:02:29.850Z,78.40
2017-07-12T09:04:57.304Z,78.50
2017-07-12T09:07:24.791Z,78.60
2017-07-12T09:09:52.251Z,78.50
2017-07-12T09:12:19.719Z,78.90
2017-07-12T09:14:47.179Z,79.30
2017-07-12T09:17:14.643Z,79.10
2017-07-12T09:19:42.122Z,79.10
2017-07-12T09:22:09.574Z,79.10
2017-07-12T09:34:27.011Z,78.60
2017-07-12T09:36:54.511Z,78.40
2017-07-12T09:39:21.958Z,78.60
2017-07-12T09:41:49.717Z,78.90
2017-07-12T09:44:17.167Z,78.90
2017-07-12T09:46:44.618Z,78.90
2017-07-12T09:49:12.078Z,78.70
2017-07-12T09:51:39.530Z,79.00
2017-07-12T09:54:06.994Z,78.80
2017-07-12T09:56:34.446Z,79.20
2017-07-12T09:59:01.916Z,79.40
2017-07-12T10:01:29.402Z,78.80
2017-07-12T10:03:56.859Z,78.80
2017-07-12T10:06:24.329Z,78.90
2017-07-12T10:08:51.787Z,78.60
2017-07-12T10:11:20.044Z,79.30
2017-07-12T10:13:47.490Z,78.90
2017-07-12T10:16:14.938Z,79.00
2017-07-12T10:18:42.405Z,78.90
2017-07-12T10:21:10.006Z,78.70
2017-07-12T10:23:37.465Z,78.70
2017-07-12T10:26:04.921Z,78.70
2017-07-12T10:28:32.394Z,78.70
2017-07-12T10:30:59.905Z,78.50
2017-07-12T10:33:27.402Z,79.00
2017-07-12T10:35:54.861Z,78.90
2017-07-12T10:38:22.323Z,79.10
2017-07-12T10:40:49.790Z,78.80
2017-07-12T10:43:17.263Z,79.20
2017-07-12T10:45:44.727Z,78.90
2017-07-12T10:48:12.178Z,79.20
2017-07-12T10:50:39.659Z,78.80
2017-07-12T10:53:07.119Z,79.20
2017-07-12T10:55:34.570Z,79.20
2017-07-12T10:58:02.057Z,79.30
2017-07-12T11:00:31.159Z,79.30
2017-07-12T11:02:58.625Z,79.70
2017-07-12T11:05:26.122Z,80.00
2017-07-12T11:07:53.582Z,79.90
2017-07-12T11:10:21.046Z,79.60
2017-07-12T11:12:48.499Z,79.90
2017-07-12T11:15:15.967Z,79.90
2017-07-12T11:17:43.426Z,79.60
2017-07-12T11:20:10.897Z,79.60
2017-07-12T11:22:38.346Z,79.60
2017-07-12T11:25:05.803Z,79.60
2017-07-12T11:27:33.266Z,79.70
2017-07-12T11:30:00.722Z,79.60
2017-07-12T11:32:28.182Z,79.30
2017-07-12T11:34:56.737Z,79.30
2017-07-12T11:37:24.198Z,79.30
2017-07-12T11:39:51.645Z,79.80
2017-07-12T11:42:19.110Z,79.40
2017-07-12T11:44:46.574Z,79.40
2017-07-12T11:47:14.055Z,79.30
2017-07-12T11:49:41.519Z,79.10
2017-07-12T11:52:08.979Z,79.10
2017-07-12T11:54:36.450Z,79.00
2017-07-12T11:57:03.905Z,79.10
2017-07-12T11:59:31.358Z,79.00
2017-07-12T12:01:58.825Z,78.90
2017-07-12T12:04:26.291Z,78.80
2017-07-12T12:06:53.747Z,78.70
2017-07-12T12:09:21.203Z,78.90
2017-07-12T12:11:48.670Z,78.70
2017-07-12T12:14:16.158Z,79.00
2017-07-12T12:16:43.614Z,79.00
2017-07-12T12:19:11.086Z,78.80
2017-07-12T12:21:38.548Z,78.60
2017-07-12T12:24:07.287Z,78.50
2017-07-12T12:26:34.734Z,78.00
2017-07-12T12:29:02.194Z,77.90
2017-07-12T12:31:29.658Z,77.60
2017-07-12T12:33:57.117Z,77.90
2017-07-12T12:36:24.587Z,77.90
2017-07-12T12:38:52.043Z,77.30
2017-07-12T12:41:19.513Z,77.20
2017-07-12T12:43:46.979Z,77.00
2017-07-12T12:46:14.437Z,77.30
2017-07-12T12:48:41.886Z,77.10
2017-07-12T12:51:09.349Z,77.40
2017-07-12T12:53:36.810Z,77.90
2017-07-12T12:56:04.258Z,78.90
2017-07-12T12:58:31.730Z,79.10
2017-07-12T13:00:59.178Z,79.60
2017-07-12T13:03:26.642Z,79.10
2017-07-12T13:05:54.882Z,79.20
2017-07-12T13:08:22.345Z,79.20
2017-07-12T13:10:49.810Z,79.40
2017-07-12T13:13:17.287Z,81.00
2017-07-12T13:15:44.750Z,81.60
2017-07-12T13:18:12.290Z,82.00
2017-07-12T13:20:39.758Z,81.80
2017-07-12T13:23:07.204Z,81.50
2017-07-12T13:25:34.673Z,81.40
2017-07-12T13:28:02.138Z,81.50
2017-07-12T13:30:29.590Z,81.40
2017-07-12T13:32:57.062Z,81.10
2017-07-12T13:35:24.515Z,80.80
2017-07-12T13:37:51.992Z,80.90
2017-07-12T13:40:19.438Z,80.80
2017-07-12T13:42:47.302Z,80.70
2017-07-12T13:45:14.778Z,80.50
2017-07-12T13:47:42.228Z,80.60
2017-07-12T13:50:09.690Z,80.70
2017-07-12T13:52:37.143Z,80.60
2017-07-12T13:55:04.611Z,80.60
2017-07-12T13:57:32.070Z,80.70
2017-07-12T13:59:59.527Z,80.60
2017-07-12T14:02:27.002Z,80.70
2017-07-12T14:04:54.490Z,80.80
2017-07-12T14:07:21.930Z,81.10
2017-07-12T14:09:49.386Z,81.20
2017-07-12T14:12:16.871Z,81.20
2017-07-12T14:14:44.318Z,81.90
2017-07-12T14:17:11.831Z,81.40
2017-07-12T14:19:39.248Z,81.70
2017-07-12T14:22:06.729Z,82.00
2017-07-12T14:24:34.203Z,82.30
2017-07-12T14:27:01.662Z,82.50
2017-07-12T14:29:29.153Z,82.30
2017-07-12T14:31:56.622Z,82.20
2017-07-12T14:34:24.076Z,82.30
2017-07-12T14:36:51.534Z,82.00
2017-07-12T14:39:18.987Z,81.90
2017-07-12T14:41:46.453Z,81.90
2017-07-12T14:44:16.691Z,81.80
2017-07-12T14:46:44.315Z,81.50
2017-07-12T14:49:11.770Z,81.40
2017-07-12T14:51:39.230Z,81.50
2017-07-12T14:54:06.681Z,81.20
2017-07-12T14:56:34.137Z,81.20
2017-07-12T14:59:01.610Z,81.10
2017-07-12T15:01:29.096Z,81.10
2017-07-12T15:03:56.562Z,81.20
2017-07-12T15:06:24.063Z,81.00
2017-07-12T15:08:51.660Z,80.80
2017-07-12T15:11:19.117Z,80.60
2017-07-12T15:13:46.569Z,80.70
2017-07-12T15:16:14.030Z,80.70
2017-07-12T15:18:42.293Z,80.80
2017-07-12T15:21:09.761Z,80.80
2017-07-12T15:23:37.247Z,80.90
2017-07-12T15:28:58.276Z,81.20
2017-07-12T15:31:25.748Z,81.20
2017-07-12T15:33:53.212Z,81.20
2017-07-12T15:36:20.686Z,81.30
2017-07-12T15:38:48.137Z,81.20
2017-07-12T15:41:15.598Z,81.60
2017-07-12T15:43:43.082Z,81.70
2017-07-12T15:46:10.685Z,81.80
2017-07-12T15:48:38.137Z,82.80
2017-07-12T15:51:05.592Z,82.00
2017-07-12T15:53:33.830Z,81.90
2017-07-12T15:56:01.402Z,81.90
2017-07-12T15:58:28.947Z,81.60
2017-07-12T16:00:57.196Z,81.50
2017-07-12T16:03:24.653Z,81.50
2017-07-12T16:05:52.157Z,81.50
2017-07-12T16:08:19.613Z,81.10
2017-07-12T16:10:47.162Z,81.20
2017-07-12T16:13:14.618Z,81.10
2017-07-12T16:15:42.062Z,80.90
2017-07-12T16:18:09.513Z,80.90
2017-07-12T16:20:36.965Z,81.10
2017-07-12T16:23:04.413Z,80.90
2017-07-12T16:25:31.869Z,81.00
2017-07-12T16:27:59.322Z,80.80
2017-07-12T16:30:26.791Z,80.50
2017-07-12T16:32:54.245Z,80.40
2017-07-12T16:35:21.690Z,80.40
2017-07-12T16:37:49.145Z,81.00
2017-07-12T16:40:16.586Z,79.80
2017-07-12T16:42:44.814Z,80.00
2017-07-12T16:45:12.272Z,80.00
2017-07-12T16:47:39.742Z,80.80
2017-07-12T16:50:07.193Z,79.20
2017-07-12T16:52:34.636Z,79.70
2017-07-12T16:55:02.105Z,79.60
2017-07-12T16:57:29.546Z,79.40
2017-07-12T16:59:56.992Z,79.60
2017-07-12T17:02:24.437Z,79.50
2017-07-12T17:04:51.901Z,79.30
2017-07-12T17:07:19.348Z,79.10
2017-07-12T17:09:47.569Z,79.00
2017-07-12T17:12:15.022Z,78.90
2017-07-12T17:17:34.921Z,78.90
2017-07-12T17:20:02.382Z,78.90
2017-07-12T17:22:29.833Z,78.70
2017-07-12T17:24:57.286Z,78.70
2017-07-12T17:27:24.740Z,78.70
2017-07-12T17:29:52.206Z,78.70
2017-07-12T17:32:19.662Z,78.50
2017-07-12T17:34:47.147Z,78.30
2017-07-12T17:37:14.577Z,78.30
2017-07-12T17:39:42.046Z,78.30
2017-07-12T18:57:00.830Z,75.80
2017-07-12T18:59:28.302Z,75.70
2017-07-12T19:01:55.762Z,75.70
2017-07-12T19:07:16.197Z,75.60
2017-07-12T19:09:43.657Z,75.60
2017-07-12T19:12:11.118Z,75.50
2017-07-12T19:14:38.570Z,75.60
2017-07-12T19:31:29.887Z,75.40
2017-07-12T19:33:57.349Z,75.50
2017-07-12T19:36:24.813Z,75.50
2017-07-12T19:38:52.251Z,75.40
2017-07-12T19:41:19.722Z,75.40
2017-07-12T19:43:47.177Z,75.30
2017-07-12T19:46:14.632Z,75.40
2017-07-12T19:48:42.094Z,75.40
2017-07-12T19:51:09.552Z,75.40
2017-07-12T19:53:37.001Z,75.40
2017-07-12T19:56:04.445Z,75.40
2017-07-12T19:58:32.673Z,75.40
2017-07-12T20:01:00.136Z,75.30
2017-07-12T20:03:27.586Z,75.30
2017-07-12T20:05:55.037Z,75.40
2017-07-12T20:08:22.481Z,75.40
2017-07-12T20:10:49.937Z,75.50
2017-07-12T20:13:17.380Z,75.60
2017-07-12T20:15:44.846Z,75.50
2017-07-12T20:18:12.429Z,75.60
2017-07-12T20:20:39.885Z,75.60
2017-07-12T20:23:08.586Z,75.40
2017-07-12T20:25:36.024Z,75.50
2017-07-12T20:28:03.479Z,75.50
2017-07-12T20:30:30.932Z,75.40
2017-07-12T20:32:59.199Z,75.40
2017-07-12T20:35:26.608Z,75.20
2017-07-12T20:37:54.049Z,75.30
2017-07-12T20:40:21.507Z,75.40
2017-07-12T21:03:05.853Z,75.00
2017-07-12T21:05:33.316Z,75.20
2017-07-12T21:08:00.767Z,75.20
2017-07-12T21:10:28.228Z,75.20
2017-07-12T21:12:55.669Z,75.30
2017-07-12T21:15:23.893Z,75.40
2017-07-12T21:17:51.340Z,75.30
2017-07-12T21:20:18.796Z,75.20
2017-07-12T21:22:46.258Z,75.10
2017-07-12T21:28:07.492Z,74.90
2017-07-12T21:30:34.948Z,74.90
2017-07-12T21:36:08.794Z,74.50
2017-07-12T21:38:36.248Z,74.80
2017-07-12T21:41:03.700Z,74.80
2017-07-12T21:43:31.156Z,74.80
2017-07-12T21:45:58.592Z,74.60
2017-07-12T21:48:26.040Z,74.50
2017-07-12T21:50:53.491Z,74.30
2017-07-12T21:53:38.431Z,74.20
2017-07-12T21:56:23.625Z,73.90
2017-07-12T21:59:08.752Z,74.00
2017-07-12T22:01:54.816Z,73.90
2017-07-12T22:04:40.034Z,73.90
2017-07-12T22:07:25.256Z,73.90
2017-07-12T22:10:10.325Z,73.80
2017-07-12T22:12:55.576Z,73.40
2017-07-12T22:15:40.767Z,73.50
2017-07-12T22:18:25.975Z,73.60
2017-07-12T22:21:11.141Z,73.50
2017-07-12T22:23:56.208Z,73.50
2017-07-12T22:26:41.496Z,73.50
2017-07-12T22:29:26.613Z,73.40
2017-07-12T22:32:12.584Z,73.30
2017-07-12T22:34:57.549Z,73.20
2017-07-12T22:37:31.460Z,73.10
2017-07-12T22:40:05.380Z,73.20
2017-07-12T22:42:39.365Z,73.30
2017-07-12T22:45:06.824Z,73.20
2017-07-12T22:47:34.265Z,73.50
2017-07-12T22:50:01.719Z,73.50
2017-07-12T22:52:29.169Z,73.40
2017-07-12T22:54:56.628Z,73.30
2017-07-12T22:57:24.069Z,73.00
2017-07-12T22:59:52.280Z,73.40
2017-07-12T23:02:19.730Z,73.30
2017-07-12T23:04:47.174Z,73.50
2017-07-12T23:07:15.388Z,74.40
2017-07-12T23:09:42.824Z,74.30
2017-07-12T23:12:10.289Z,74.30
2017-07-12T23:14:37.732Z,74.10
2017-07-12T23:17:05.943Z,73.80
2017-07-12T23:19:33.391Z,73.80
2017-07-12T23:22:00.839Z,74.10
2017-07-12T23:24:29.052Z,74.10
2017-07-12T23:26:56.500Z,74.10
2017-07-12T23:29:23.952Z,74.10
2017-07-12T23:31:51.407Z,74.30
2017-07-12T23:34:19.631Z,74.10
2017-07-12T23:36:47.085Z,74.10
2017-07-12T23:39:14.524Z,74.30
2017-07-12T23:41:41.985Z,74.10
2017-07-12T23:44:09.429Z,74.30
2017-07-12T23:46:37.650Z,74.30
2017-07-12T23:49:05.096Z,74.30
2017-07-12T23:51:32.549Z,74.20
2017-07-12T23:54:00.776Z,73.90
2017-07-12T23:56:28.300Z,73.80
2017-07-12T23:58:55.652Z,73.80
